createdAt,value
2024-03-12T00:00:09.410Z,985.08
2024-03-12T00:01:10.534Z,985.14
2024-03-12T00:02:09.729Z,985.06
2024-03-12T00:03:09.787Z,985.03
2024-03-12T00:04:09.541Z,985.10
2024-03-12T00:05:09.426Z,985.09
2024-03-12T00:06:09.341Z,985.05
2024-03-12T00:07:09.407Z,985.05
2024-03-12T00:08:09.348Z,985.09
2024-03-12T00:09:09.341Z,985.05
2024-03-12T00:10:09.338Z,985.04
2024-03-12T00:11:09.626Z,985.04
2024-03-12T00:12:09.266Z,985.02
2024-03-12T00:13:09.755Z,985.02
2024-03-12T00:14:09.265Z,985.01
2024-03-12T00:15:09.364Z,985.06
2024-03-12T00:16:09.403Z,985.04
2024-03-12T00:17:09.247Z,985.07
2024-03-12T00:18:09.970Z,985.07
2024-03-12T00:19:10.149Z,985.03
2024-03-12T00:20:09.154Z,985.07
2024-03-12T00:21:09.220Z,985.07
2024-03-12T00:22:09.144Z,985.05
2024-03-12T00:23:09.143Z,985.09
2024-03-12T00:24:09.100Z,985.09
2024-03-12T00:25:09.220Z,985.05
2024-03-12T00:26:09.074Z,985.09
2024-03-12T00:27:09.080Z,985.15
2024-03-12T00:28:10.290Z,985.13
2024-03-12T00:29:09.393Z,985.15
2024-03-12T00:30:09.083Z,985.16
2024-03-12T00:31:09.177Z,985.12
2024-03-12T00:32:09.012Z,985.15
2024-03-12T00:33:09.373Z,985.13
2024-03-12T00:34:09.020Z,985.18
2024-03-12T00:35:09.036Z,985.16
2024-03-12T00:36:08.943Z,985.19
2024-03-12T00:37:08.987Z,985.16
2024-03-12T00:38:08.933Z,985.19
2024-03-12T00:39:08.933Z,985.15
2024-03-12T00:40:08.929Z,985.20
2024-03-12T00:41:08.907Z,985.25
2024-03-12T00:42:08.868Z,985.22
2024-03-12T00:43:09.128Z,985.22
2024-03-12T00:44:09.147Z,985.24
2024-03-12T00:45:08.855Z,985.22
2024-03-12T00:46:08.893Z,985.23
2024-03-12T00:47:08.834Z,985.27
2024-03-12T00:48:08.847Z,985.25
2024-03-12T00:49:08.875Z,985.26
2024-03-12T00:50:08.784Z,985.28
2024-03-12T00:51:08.763Z,985.29
2024-03-12T00:52:08.762Z,985.27
2024-03-12T00:53:09.137Z,985.34
2024-03-12T00:54:08.736Z,985.33
2024-03-12T00:55:08.803Z,985.32
2024-03-12T00:56:08.677Z,985.38
2024-03-12T00:57:08.690Z,985.39
2024-03-12T00:58:08.700Z,985.45
2024-03-12T00:59:09.387Z,985.46
2024-03-12T01:00:08.628Z,985.43
2024-03-12T01:01:08.710Z,985.47
2024-03-12T01:02:08.595Z,985.44
2024-03-12T01:03:08.610Z,985.49
2024-03-12T01:04:08.658Z,985.51
2024-03-12T01:05:08.597Z,985.52
2024-03-12T01:06:08.553Z,985.57
2024-03-12T01:07:08.761Z,985.54
2024-03-12T01:08:09.196Z,985.57
2024-03-12T01:09:08.529Z,985.54
2024-03-12T01:10:08.556Z,985.57
2024-03-12T01:11:08.582Z,985.58
2024-03-12T01:12:08.476Z,985.61
2024-03-12T01:13:08.585Z,985.58
2024-03-12T01:14:08.445Z,985.53
2024-03-12T01:15:08.484Z,985.54
2024-03-12T01:16:08.445Z,985.52
2024-03-12T01:17:08.434Z,985.56
2024-03-12T01:18:08.429Z,985.51
2024-03-12T01:19:08.472Z,985.54
2024-03-12T01:20:08.594Z,985.52
2024-03-12T01:21:08.423Z,985.52
2024-03-12T01:22:08.350Z,985.54
2024-03-12T01:23:08.460Z,985.52
2024-03-12T01:24:08.320Z,985.50
2024-03-12T01:25:08.384Z,985.49
2024-03-12T01:26:08.311Z,985.48
2024-03-12T01:27:08.298Z,985.49
2024-03-12T01:28:09.143Z,985.48
2024-03-12T01:29:08.279Z,985.47
2024-03-12T01:30:08.335Z,985.43
2024-03-12T01:31:08.372Z,985.44
2024-03-12T01:32:08.200Z,985.43
2024-03-12T01:33:08.387Z,985.46
2024-03-12T01:34:08.296Z,985.41
2024-03-12T01:35:08.189Z,985.45
2024-03-12T01:36:08.152Z,985.42
2024-03-12T01:37:08.282Z,985.43
2024-03-12T01:38:08.132Z,985.46
2024-03-12T01:39:08.138Z,985.43
2024-03-12T01:40:08.165Z,985.47
2024-03-12T01:41:08.726Z,985.46
2024-03-12T01:42:08.093Z,985.49
2024-03-12T01:43:08.912Z,985.48
2024-03-12T01:44:08.050Z,985.51
2024-03-12T01:45:08.062Z,985.52
2024-03-12T01:46:08.108Z,985.54
2024-03-12T01:47:08.027Z,985.55
2024-03-12T01:48:08.159Z,985.53
2024-03-12T01:49:08.079Z,985.54
2024-03-12T01:50:07.975Z,985.57
2024-03-12T01:51:08.723Z,985.60
2024-03-12T01:52:07.980Z,985.59
2024-03-12T01:53:09.665Z,985.64
2024-03-12T01:54:08.711Z,985.57
2024-03-12T01:55:08.060Z,985.61
2024-03-12T01:56:07.895Z,985.60
2024-03-12T01:57:07.905Z,985.60
2024-03-12T01:58:08.064Z,985.67
2024-03-12T01:59:08.192Z,985.66
2024-03-12T02:00:07.882Z,985.68
2024-03-12T02:01:07.952Z,985.66
2024-03-12T02:02:07.815Z,985.70
2024-03-12T02:03:07.847Z,985.70
2024-03-12T02:04:07.845Z,985.69
2024-03-12T02:05:07.806Z,985.66
2024-03-12T02:06:08.271Z,985.71
2024-03-12T02:07:08.386Z,985.66
2024-03-12T02:08:07.726Z,985.67
2024-03-12T02:09:07.766Z,985.64
2024-03-12T02:10:07.745Z,985.69
2024-03-12T02:11:07.742Z,985.71
2024-03-12T02:12:07.679Z,985.69
2024-03-12T02:13:08.004Z,985.70
2024-03-12T02:14:07.659Z,985.70
2024-03-12T02:15:07.662Z,985.71
2024-03-12T02:16:08.008Z,985.75
2024-03-12T02:17:07.657Z,985.74
2024-03-12T02:18:07.647Z,985.74
2024-03-12T02:19:07.650Z,985.71
2024-03-12T02:20:07.599Z,985.73
2024-03-12T02:21:08.342Z,985.71
2024-03-12T02:22:07.682Z,985.70
2024-03-12T02:23:07.789Z,985.70
2024-03-12T02:24:07.601Z,985.71
2024-03-12T02:25:07.697Z,985.76
2024-03-12T02:26:07.568Z,985.72
2024-03-12T02:27:07.589Z,985.78
2024-03-12T02:28:07.657Z,985.78
2024-03-12T02:29:07.542Z,985.76
2024-03-12T02:30:07.446Z,985.80
2024-03-12T02:31:07.653Z,985.76
2024-03-12T02:32:07.492Z,985.78
2024-03-12T02:33:07.525Z,985.75
2024-03-12T02:34:07.530Z,985.80
2024-03-12T02:35:08.294Z,985.80
2024-03-12T02:36:07.374Z,985.81
2024-03-12T02:37:08.428Z,985.81
2024-03-12T02:38:07.403Z,985.83
2024-03-12T02:39:07.342Z,985.83
2024-03-12T02:40:07.364Z,985.81
2024-03-12T02:41:08.272Z,985.86
2024-03-12T02:42:07.285Z,985.85
2024-03-12T02:43:07.731Z,985.88
2024-03-12T02:44:07.274Z,985.82
2024-03-12T02:45:07.272Z,985.86
2024-03-12T02:46:08.067Z,985.88
2024-03-12T02:47:07.273Z,985.90
2024-03-12T02:48:07.318Z,985.89
2024-03-12T02:49:07.335Z,985.88
2024-03-12T02:50:07.660Z,985.92
2024-03-12T02:51:07.262Z,985.89
2024-03-12T02:52:07.257Z,985.89
2024-03-12T02:53:07.196Z,985.86
2024-03-12T02:54:07.136Z,985.89
2024-03-12T02:55:07.209Z,985.90
2024-03-12T02:56:07.110Z,985.88
2024-03-12T02:57:07.111Z,985.87
2024-03-12T02:58:07.135Z,985.92
2024-03-12T02:59:07.094Z,985.91
2024-03-12T03:00:07.069Z,985.91
2024-03-12T03:01:07.235Z,985.92
2024-03-12T03:02:07.024Z,985.91
2024-03-12T03:03:07.055Z,985.92
2024-03-12T03:04:07.061Z,985.92
2024-03-12T03:05:07.036Z,985.96
2024-03-12T03:06:06.995Z,985.96
2024-03-12T03:07:07.106Z,985.97
2024-03-12T03:08:06.959Z,986.00
2024-03-12T03:09:06.981Z,986.01
2024-03-12T03:10:07.043Z,986.03
2024-03-12T03:11:06.968Z,986.01
2024-03-12T03:12:06.903Z,986.05
2024-03-12T03:13:07.027Z,986.04
2024-03-12T03:14:06.892Z,986.03
2024-03-12T03:15:07.799Z,986.05
2024-03-12T03:16:07.846Z,986.05
2024-03-12T03:17:06.875Z,986.06
2024-03-12T03:18:06.844Z,986.03
2024-03-12T03:19:06.929Z,986.09
2024-03-12T03:20:06.799Z,986.11
2024-03-12T03:21:06.798Z,986.09
2024-03-12T03:22:06.923Z,986.10
2024-03-12T03:23:07.008Z,986.06
2024-03-12T03:24:07.032Z,986.09
2024-03-12T03:25:06.935Z,986.08
2024-03-12T03:26:06.729Z,986.12
2024-03-12T03:27:06.817Z,986.10
2024-03-12T03:28:06.735Z,986.11
2024-03-12T03:29:06.694Z,986.14
2024-03-12T03:30:06.664Z,986.11
2024-03-12T03:31:06.772Z,986.09
2024-03-12T03:32:06.642Z,986.10
2024-03-12T03:33:06.715Z,986.10
2024-03-12T03:34:06.674Z,986.10
2024-03-12T03:35:06.609Z,986.14
2024-03-12T03:36:06.585Z,986.13
2024-03-12T03:37:06.672Z,986.12
2024-03-12T03:38:07.407Z,986.15
2024-03-12T03:39:07.047Z,986.18
2024-03-12T03:40:06.577Z,986.15
2024-03-12T03:41:06.534Z,986.18
2024-03-12T03:42:06.500Z,986.20
2024-03-12T03:43:06.683Z,986.19
2024-03-12T03:44:06.474Z,986.21
2024-03-12T03:45:06.479Z,986.22
2024-03-12T03:46:06.506Z,986.21
2024-03-12T03:47:06.498Z,986.22
2024-03-12T03:48:06.459Z,986.22
2024-03-12T03:49:06.562Z,986.23
2024-03-12T03:50:06.416Z,986.21
2024-03-12T03:51:06.395Z,986.23
2024-03-12T03:52:06.378Z,986.24
2024-03-12T03:53:07.189Z,986.21
2024-03-12T03:54:07.339Z,986.22
2024-03-12T03:55:07.338Z,986.17
2024-03-12T03:56:06.314Z,986.20
2024-03-12T03:57:07.349Z,986.21
2024-03-12T03:58:06.360Z,986.23
2024-03-12T03:59:06.297Z,986.23
2024-03-12T04:00:06.294Z,986.25
2024-03-12T04:01:06.395Z,986.28
2024-03-12T04:02:06.317Z,986.26
2024-03-12T04:03:06.246Z,986.26
2024-03-12T04:04:06.283Z,986.29
2024-03-12T04:05:06.200Z,986.32
2024-03-12T04:06:06.217Z,986.31
2024-03-12T04:07:06.423Z,986.38
2024-03-12T04:08:06.173Z,986.35
2024-03-12T04:09:06.561Z,986.39
2024-03-12T04:10:06.618Z,986.41
2024-03-12T04:11:06.200Z,986.38
2024-03-12T04:12:06.131Z,986.40
2024-03-12T04:13:06.170Z,986.35
2024-03-12T04:14:06.093Z,986.41
2024-03-12T04:15:06.064Z,986.40
2024-03-12T04:16:06.133Z,986.40
2024-03-12T04:17:06.048Z,986.42
2024-03-12T04:18:06.101Z,986.42
2024-03-12T04:19:06.407Z,986.42
2024-03-12T04:20:06.021Z,986.48
2024-03-12T04:21:05.992Z,986.47
2024-03-12T04:22:06.067Z,986.52
2024-03-12T04:23:05.980Z,986.50
2024-03-12T04:24:05.972Z,986.48
2024-03-12T04:25:06.969Z,986.52
2024-03-12T04:26:05.938Z,986.53
2024-03-12T04:27:05.924Z,986.56
2024-03-12T04:28:05.996Z,986.55
2024-03-12T04:29:05.874Z,986.62
2024-03-12T04:30:05.949Z,986.61
2024-03-12T04:31:05.933Z,986.64
2024-03-12T04:32:05.865Z,986.60
2024-03-12T04:33:05.907Z,986.64
2024-03-12T04:34:05.879Z,986.63
2024-03-12T04:35:05.908Z,986.64
2024-03-12T04:36:05.807Z,986.66
2024-03-12T04:37:05.930Z,986.67
2024-03-12T04:38:05.782Z,986.66
2024-03-12T04:39:09.684Z,986.68
2024-03-12T04:40:05.847Z,986.71
2024-03-12T04:41:05.896Z,986.66
2024-03-12T04:42:05.727Z,986.68
2024-03-12T04:43:05.838Z,986.71
2024-03-12T04:44:05.715Z,986.71
2024-03-12T04:45:05.665Z,986.70
2024-03-12T04:46:05.731Z,986.75
2024-03-12T04:47:05.647Z,986.76
2024-03-12T04:48:05.746Z,986.74
2024-03-12T04:49:05.719Z,986.78
2024-03-12T04:50:05.706Z,986.81
2024-03-12T04:51:05.592Z,986.80
2024-03-12T04:52:05.668Z,986.77
2024-03-12T04:53:05.589Z,986.74
2024-03-12T04:54:05.596Z,986.80
2024-03-12T04:55:05.637Z,986.79
2024-03-12T04:56:05.539Z,986.81
2024-03-12T04:57:05.510Z,986.82
2024-03-12T04:58:05.570Z,986.82
2024-03-12T04:59:05.472Z,986.87
2024-03-12T05:00:05.499Z,986.90
2024-03-12T05:01:05.546Z,986.90
2024-03-12T05:02:05.499Z,986.93
2024-03-12T05:03:05.469Z,986.91
2024-03-12T05:04:12.323Z,986.95
2024-03-12T05:05:06.415Z,986.91
2024-03-12T05:06:05.412Z,986.94
2024-03-12T05:07:05.471Z,987.01
2024-03-12T05:08:05.399Z,987.01
2024-03-12T05:09:06.251Z,987.04
2024-03-12T05:10:06.393Z,987.01
2024-03-12T05:11:05.999Z,987.02
2024-03-12T05:12:05.340Z,987.03
2024-03-12T05:13:05.446Z,987.03
2024-03-12T05:14:05.315Z,987.02
2024-03-12T05:15:05.271Z,987.06
2024-03-12T05:16:06.169Z,987.08
2024-03-12T05:17:05.241Z,987.06
2024-03-12T05:18:05.444Z,987.09
2024-03-12T05:19:05.312Z,987.09
2024-03-12T05:20:05.372Z,987.12
2024-03-12T05:21:05.192Z,987.11
2024-03-12T05:22:05.283Z,987.14
2024-03-12T05:23:05.119Z,987.16
2024-03-12T05:24:05.131Z,987.15
2024-03-12T05:25:05.282Z,987.15
2024-03-12T05:26:05.131Z,987.16
2024-03-12T05:27:05.632Z,987.19
2024-03-12T05:28:05.142Z,987.22
2024-03-12T05:29:05.039Z,987.20
2024-03-12T05:30:05.367Z,987.26
2024-03-12T05:31:05.065Z,987.26
2024-03-12T05:32:05.016Z,987.31
2024-03-12T05:33:05.013Z,987.29
2024-03-12T05:34:05.012Z,987.30
2024-03-12T05:35:04.952Z,987.31
2024-03-12T05:36:04.972Z,987.31
2024-03-12T05:37:05.098Z,987.33
2024-03-12T05:38:05.968Z,987.32
2024-03-12T05:39:04.923Z,987.33
2024-03-12T05:40:04.957Z,987.35
2024-03-12T05:41:05.781Z,987.34
2024-03-12T05:42:05.020Z,987.34
2024-03-12T05:43:05.028Z,987.37
2024-03-12T05:44:05.140Z,987.39
2024-03-12T05:45:04.851Z,987.35
2024-03-12T05:46:04.886Z,987.35
2024-03-12T05:47:04.798Z,987.38
2024-03-12T05:48:04.841Z,987.40
2024-03-12T05:49:04.820Z,987.41
2024-03-12T05:50:05.050Z,987.41
2024-03-12T05:51:04.754Z,987.42
2024-03-12T05:52:04.839Z,987.43
2024-03-12T05:53:05.623Z,987.42
2024-03-12T05:54:04.734Z,987.44
2024-03-12T05:55:05.738Z,987.48
2024-03-12T05:56:04.716Z,987.47
2024-03-12T05:57:04.735Z,987.54
2024-03-12T05:58:04.887Z,987.57
2024-03-12T05:59:04.645Z,987.56
2024-03-12T06:00:04.864Z,987.58
2024-03-12T06:01:04.737Z,987.59
2024-03-12T06:02:04.665Z,987.57
2024-03-12T06:03:04.586Z,987.58
2024-03-12T06:04:04.613Z,987.64
2024-03-12T06:05:04.571Z,987.65
2024-03-12T06:06:04.575Z,987.70
2024-03-12T06:07:04.639Z,987.65
2024-03-12T06:08:04.572Z,987.69
2024-03-12T06:09:04.514Z,987.68
2024-03-12T06:10:05.296Z,987.69
2024-03-12T06:11:04.602Z,987.69
2024-03-12T06:12:04.507Z,987.72
2024-03-12T06:13:05.333Z,987.71
2024-03-12T06:14:04.707Z,987.72
2024-03-12T06:15:04.427Z,987.74
2024-03-12T06:16:04.501Z,987.75
2024-03-12T06:17:04.411Z,987.74
2024-03-12T06:18:04.456Z,987.74
2024-03-12T06:19:04.430Z,987.75
2024-03-12T06:20:05.602Z,987.78
2024-03-12T06:21:05.292Z,987.77
2024-03-12T06:22:04.456Z,987.79
2024-03-12T06:23:04.352Z,987.77
2024-03-12T06:24:04.335Z,987.76
2024-03-12T06:25:04.353Z,987.77
2024-03-12T06:26:04.321Z,987.76
2024-03-12T06:27:04.263Z,987.73
2024-03-12T06:28:04.715Z,987.80
2024-03-12T06:29:04.243Z,987.77
2024-03-12T06:30:04.304Z,987.80
2024-03-12T06:31:04.318Z,987.81
2024-03-12T06:32:04.232Z,987.81
2024-03-12T06:33:04.205Z,987.82
2024-03-12T06:34:04.258Z,987.87
2024-03-12T06:35:04.168Z,987.88
2024-03-12T06:36:04.207Z,987.89
2024-03-12T06:37:04.315Z,987.90
2024-03-12T06:38:04.152Z,987.89
2024-03-12T06:39:04.151Z,987.94
2024-03-12T06:40:04.255Z,987.99
2024-03-12T06:41:04.089Z,987.98
2024-03-12T06:42:07.648Z,987.98
2024-03-12T06:43:04.314Z,987.99
2024-03-12T06:44:04.179Z,988.02
2024-03-12T06:45:04.036Z,988.02
2024-03-12T06:46:04.211Z,988.04
2024-03-12T06:47:04.003Z,988.02
2024-03-12T06:48:04.045Z,988.04
2024-03-12T06:49:04.984Z,988.03
2024-03-12T06:50:05.603Z,988.07
2024-03-12T06:51:04.139Z,988.11
2024-03-12T06:52:04.009Z,988.11
2024-03-12T06:53:03.922Z,988.10
2024-03-12T06:54:03.938Z,988.11
2024-03-12T06:55:03.974Z,988.10
2024-03-12T06:56:07.807Z,988.12
2024-03-12T06:57:03.901Z,988.14
2024-03-12T06:58:04.363Z,988.11
2024-03-12T06:59:03.863Z,988.10
2024-03-12T07:00:03.869Z,988.11
2024-03-12T07:01:03.905Z,988.16
2024-03-12T07:02:03.874Z,988.14
2024-03-12T07:03:03.795Z,988.16
2024-03-12T07:04:03.828Z,988.20
2024-03-12T07:05:03.762Z,988.23
2024-03-12T07:06:04.186Z,988.19
2024-03-12T07:07:03.858Z,988.23
2024-03-12T07:08:03.746Z,988.18
2024-03-12T07:09:03.716Z,988.26
2024-03-12T07:10:03.796Z,988.23
2024-03-12T07:11:03.742Z,988.26
2024-03-12T07:12:04.166Z,988.29
2024-03-12T07:13:03.797Z,988.28
2024-03-12T07:14:03.684Z,988.31
2024-03-12T07:15:03.665Z,988.36
2024-03-12T07:16:03.693Z,988.32
2024-03-12T07:17:04.085Z,988.34
2024-03-12T07:18:03.675Z,988.44
2024-03-12T07:19:03.627Z,988.45
2024-03-12T07:20:03.598Z,988.43
2024-03-12T07:21:03.549Z,988.41
2024-03-12T07:22:03.638Z,988.42
2024-03-12T07:23:03.549Z,988.43
2024-03-12T07:24:03.560Z,988.44
2024-03-12T07:25:03.602Z,988.42
2024-03-12T07:26:03.505Z,988.45
2024-03-12T07:27:03.471Z,988.44
2024-03-12T07:28:03.539Z,988.46
2024-03-12T07:29:03.801Z,988.38
2024-03-12T07:30:03.492Z,988.41
2024-03-12T07:31:03.470Z,988.42
2024-03-12T07:32:03.447Z,988.45
2024-03-12T07:33:03.420Z,988.39
2024-03-12T07:34:03.464Z,988.37
2024-03-12T07:35:03.382Z,988.39
2024-03-12T07:36:03.390Z,988.41
2024-03-12T07:37:03.441Z,988.34
2024-03-12T07:38:03.380Z,988.40
2024-03-12T07:39:03.339Z,988.43
2024-03-12T07:40:03.381Z,988.44
2024-03-12T07:41:03.301Z,988.43
2024-03-12T07:42:03.309Z,988.41
2024-03-12T07:43:03.384Z,988.40
2024-03-12T07:44:04.189Z,988.45
2024-03-12T07:45:04.120Z,988.39
2024-03-12T07:46:03.316Z,988.44
2024-03-12T07:47:03.225Z,988.45
2024-03-12T07:48:03.296Z,988.44
2024-03-12T07:49:03.298Z,988.46
2024-03-12T07:50:03.202Z,988.45
2024-03-12T07:51:03.608Z,988.45
2024-03-12T07:52:03.279Z,988.44
2024-03-12T07:53:03.134Z,988.53
2024-03-12T07:54:03.144Z,988.46
2024-03-12T07:55:03.241Z,988.45
2024-03-12T07:56:03.122Z,988.46
2024-03-12T07:57:03.104Z,988.46
2024-03-12T07:58:03.186Z,988.52
2024-03-12T07:59:03.213Z,988.58
2024-03-12T08:00:03.060Z,988.54
2024-03-12T08:01:03.177Z,988.54
2024-03-12T08:02:03.130Z,988.57
2024-03-12T08:03:03.018Z,988.56
2024-03-12T08:04:03.045Z,988.54
2024-03-12T08:05:02.995Z,988.52
2024-03-12T08:06:02.982Z,988.56
2024-03-12T08:07:03.011Z,988.55
2024-03-12T08:08:02.966Z,988.61
2024-03-12T08:09:02.934Z,988.57
2024-03-12T08:10:02.998Z,988.59
2024-03-12T08:11:02.957Z,988.57
2024-03-12T08:12:02.945Z,988.61
2024-03-12T08:13:02.992Z,988.63
2024-03-12T08:14:02.894Z,988.60
2024-03-12T08:15:03.273Z,988.62
2024-03-12T08:16:03.617Z,988.62
2024-03-12T08:17:03.020Z,988.63
2024-03-12T08:18:12.647Z,988.69
2024-03-12T08:19:03.923Z,988.60
2024-03-12T08:20:02.785Z,988.66
2024-03-12T08:21:02.793Z,988.68
2024-03-12T08:22:03.689Z,988.68
2024-03-12T08:23:02.823Z,988.68
2024-03-12T08:24:02.731Z,988.67
2024-03-12T08:25:02.876Z,988.68
2024-03-12T08:26:02.777Z,988.63
2024-03-12T08:27:02.708Z,988.63
2024-03-12T08:28:03.588Z,988.67
2024-03-12T08:29:02.683Z,988.65
2024-03-12T08:30:03.637Z,988.70
2024-03-12T08:31:08.750Z,988.67
2024-03-12T08:32:03.784Z,988.68
2024-03-12T08:33:02.670Z,988.70
2024-03-12T08:34:02.644Z,988.69
2024-03-12T08:35:02.649Z,988.73
2024-03-12T08:36:02.599Z,988.75
2024-03-12T08:37:02.672Z,988.73
2024-03-12T08:38:02.564Z,988.78
2024-03-12T08:39:03.288Z,988.76
2024-03-12T08:40:03.515Z,988.81
2024-03-12T08:41:02.552Z,988.82
2024-03-12T08:42:02.499Z,988.84
2024-03-12T08:43:05.139Z,988.84
2024-03-12T08:44:02.471Z,988.79
2024-03-12T08:45:02.476Z,988.82
2024-03-12T08:46:02.613Z,988.84
2024-03-12T08:47:02.640Z,988.81
2024-03-12T08:48:02.453Z,988.82
2024-03-12T08:49:02.531Z,988.86
2024-03-12T08:50:02.790Z,988.88
2024-03-12T08:51:02.408Z,988.89
2024-03-12T08:52:02.388Z,988.87
2024-03-12T08:53:02.391Z,988.93
2024-03-12T08:54:02.356Z,988.90
2024-03-12T08:55:02.975Z,988.91
2024-03-12T08:56:02.375Z,988.92
2024-03-12T08:57:02.355Z,988.93
2024-03-12T08:58:02.357Z,988.90
2024-03-12T08:59:02.291Z,988.93
2024-03-12T09:00:02.303Z,988.94
2024-03-12T09:01:03.221Z,988.92
2024-03-12T09:02:02.456Z,988.98
2024-03-12T09:03:02.285Z,989.00
2024-03-12T09:04:02.366Z,988.99
2024-03-12T09:05:02.213Z,988.97
2024-03-12T09:06:02.360Z,988.94
2024-03-12T09:07:02.270Z,988.98
2024-03-12T09:08:02.145Z,989.01
2024-03-12T09:09:02.192Z,989.01
2024-03-12T09:10:02.331Z,989.00
2024-03-12T09:11:02.168Z,988.99
2024-03-12T09:12:02.110Z,988.99
2024-03-12T09:13:02.192Z,989.01
2024-03-12T09:14:02.133Z,989.00
2024-03-12T09:15:02.083Z,989.10
2024-03-12T09:16:02.093Z,989.04
2024-03-12T09:17:02.987Z,989.08
2024-03-12T09:18:02.109Z,989.08
2024-03-12T09:19:02.142Z,989.18
2024-03-12T09:20:02.028Z,989.11
2024-03-12T09:21:02.024Z,989.12
2024-03-12T09:22:01.986Z,989.13
2024-03-12T09:23:01.966Z,989.16
2024-03-12T09:24:02.845Z,989.17
2024-03-12T09:25:02.061Z,989.17
2024-03-12T09:26:02.858Z,989.24
2024-03-12T09:27:01.940Z,989.25
2024-03-12T09:28:01.902Z,989.23
2024-03-12T09:29:01.970Z,989.27
2024-03-12T09:30:01.996Z,989.27
2024-03-12T09:31:03.679Z,989.25
2024-03-12T09:32:02.803Z,989.33
2024-03-12T09:33:02.144Z,989.31
2024-03-12T09:34:02.059Z,989.25
2024-03-12T09:35:02.158Z,989.27
2024-03-12T09:36:01.820Z,989.31
2024-03-12T09:37:01.851Z,989.26
2024-03-12T09:38:01.755Z,989.30
2024-03-12T09:39:01.791Z,989.26
2024-03-12T09:40:01.815Z,989.33
2024-03-12T09:41:01.743Z,989.29
2024-03-12T09:42:01.694Z,989.37
2024-03-12T09:43:01.804Z,989.31
2024-03-12T09:44:03.031Z,989.35
2024-03-12T09:45:01.686Z,989.33
2024-03-12T09:46:01.697Z,989.36
2024-03-12T09:47:01.725Z,989.43
2024-03-12T09:48:02.567Z,989.42
2024-03-12T09:49:02.469Z,989.41
2024-03-12T09:50:03.689Z,989.37
2024-03-12T09:51:01.623Z,989.44
2024-03-12T09:52:01.872Z,989.48
2024-03-12T09:53:01.580Z,989.48
2024-03-12T09:54:01.550Z,989.50
2024-03-12T09:55:01.700Z,989.51
2024-03-12T09:57:01.542Z,989.50
2024-03-12T09:58:01.565Z,989.52
2024-03-12T09:59:01.778Z,989.53
2024-03-12T10:00:01.493Z,989.56
2024-03-12T10:01:01.580Z,989.58
2024-03-12T10:02:03.027Z,989.57
2024-03-12T10:03:02.403Z,989.60
2024-03-12T10:04:02.349Z,989.69
2024-03-12T10:05:01.443Z,989.70
2024-03-12T10:06:02.353Z,989.66
2024-03-12T10:07:02.112Z,989.70
2024-03-12T10:08:04.683Z,989.71
2024-03-12T10:09:02.368Z,989.68
2024-03-12T10:10:01.506Z,989.68
2024-03-12T10:11:01.390Z,989.70
2024-03-12T10:12:01.328Z,989.70
2024-03-12T10:13:01.361Z,989.72
2024-03-12T10:14:02.015Z,989.71
2024-03-12T10:15:01.305Z,989.75
2024-03-12T10:16:01.727Z,989.74
2024-03-12T10:17:01.296Z,989.70
2024-03-12T10:18:01.738Z,989.75
2024-03-12T10:19:01.741Z,989.73
2024-03-12T10:20:04.436Z,989.74
2024-03-12T10:21:01.205Z,989.73
2024-03-12T10:22:01.251Z,989.73
2024-03-12T10:23:01.185Z,989.73
2024-03-12T10:24:01.155Z,989.68
2024-03-12T10:25:01.191Z,989.73
2024-03-12T10:26:02.572Z,989.74
2024-03-12T10:27:01.145Z,989.74
2024-03-12T10:28:07.572Z,989.73
2024-03-12T10:29:02.406Z,989.69
2024-03-12T10:30:01.069Z,989.71
2024-03-12T10:31:01.184Z,989.68
2024-03-12T10:32:01.811Z,989.72
2024-03-12T10:33:01.078Z,989.73
2024-03-12T10:34:01.982Z,989.70
2024-03-12T10:35:01.901Z,989.73
2024-03-12T10:36:01.025Z,989.68
2024-03-12T10:37:01.051Z,989.72
2024-03-12T10:38:01.624Z,989.72
2024-03-12T10:39:00.994Z,989.69
2024-03-12T10:40:01.013Z,989.65
2024-03-12T10:41:00.980Z,989.68
2024-03-12T10:42:01.581Z,989.69
2024-03-12T10:43:01.970Z,989.73
2024-03-12T10:44:01.898Z,989.77
2024-03-12T10:45:00.920Z,989.73
2024-03-12T10:46:00.999Z,989.75
2024-03-12T10:47:00.867Z,989.77
2024-03-12T10:48:00.875Z,989.77
2024-03-12T10:49:01.842Z,989.83
2024-03-12T10:50:01.754Z,989.79
2024-03-12T10:51:00.980Z,989.80
2024-03-12T10:52:00.802Z,989.79
2024-03-12T10:53:00.799Z,989.78
2024-03-12T10:54:00.769Z,989.82
2024-03-12T10:55:05.942Z,989.84
2024-03-12T10:56:03.900Z,989.83
2024-03-12T10:57:00.735Z,989.86
2024-03-12T10:58:00.738Z,989.82
2024-03-12T10:59:00.762Z,989.84
2024-03-12T11:00:00.961Z,989.80
2024-03-12T11:01:00.810Z,989.86
2024-03-12T11:02:00.799Z,989.83
2024-03-12T11:03:00.667Z,989.89
2024-03-12T11:04:00.808Z,989.93
2024-03-12T11:05:01.342Z,989.95
2024-03-12T11:06:01.370Z,989.92
2024-03-12T11:07:00.671Z,989.93
2024-03-12T11:08:00.577Z,989.92
2024-03-12T11:09:00.748Z,989.96
2024-03-12T11:10:00.601Z,989.97
2024-03-12T11:11:00.608Z,990.00
2024-03-12T11:12:00.528Z,989.99
2024-03-12T11:13:00.658Z,990.05
2024-03-12T11:14:00.501Z,989.99
2024-03-12T11:15:00.502Z,989.99
2024-03-12T11:16:00.484Z,989.97
2024-03-12T11:17:00.572Z,989.96
2024-03-12T11:18:00.513Z,989.99
2024-03-12T11:19:00.497Z,989.98
2024-03-12T11:20:02.951Z,990.01
2024-03-12T11:21:01.305Z,990.03
2024-03-12T11:22:00.439Z,990.03
2024-03-12T11:23:00.391Z,989.98
2024-03-12T11:24:00.353Z,990.08
2024-03-12T11:25:00.440Z,990.10
2024-03-12T11:26:00.432Z,990.06
2024-03-12T11:27:00.350Z,990.06
2024-03-12T11:28:00.361Z,990.11
2024-03-12T11:29:01.323Z,990.11
2024-03-12T11:30:00.296Z,990.06
2024-03-12T11:31:00.403Z,990.08
2024-03-12T11:32:00.283Z,990.12
2024-03-12T11:33:00.295Z,990.12
2024-03-12T11:34:00.395Z,990.06
2024-03-12T11:35:00.243Z,990.11
2024-03-12T11:36:00.217Z,990.08
2024-03-12T11:37:00.377Z,990.12
2024-03-12T11:38:00.363Z,990.12
2024-03-12T11:39:00.250Z,990.11
2024-03-12T11:40:00.278Z,990.14
2024-03-12T11:41:00.194Z,990.13
2024-03-12T11:42:00.171Z,990.11
2024-03-12T11:43:00.251Z,990.14
2024-03-12T11:44:00.142Z,990.15
2024-03-12T11:45:00.191Z,990.10
2024-03-12T11:46:00.097Z,990.09
2024-03-12T11:47:00.090Z,990.14
2024-03-12T11:48:00.116Z,990.11
2024-03-12T11:49:00.846Z,990.10
2024-03-12T11:50:03.325Z,990.12
2024-03-12T11:51:01.134Z,990.12
2024-03-12T11:52:00.866Z,990.23
2024-03-12T11:53:00.014Z,990.15
2024-03-12T11:53:59.977Z,990.15
2024-03-12T11:55:00.092Z,990.17
2024-03-12T11:56:01.361Z,990.19
2024-03-12T11:56:59.963Z,990.12
2024-03-12T11:57:59.946Z,990.18
2024-03-12T11:59:05.599Z,990.18
2024-03-12T12:00:00.933Z,990.18
2024-03-12T12:00:59.964Z,990.24
2024-03-12T12:02:02.689Z,990.18
2024-03-12T12:02:59.869Z,990.20
2024-03-12T12:03:59.908Z,990.19
2024-03-12T12:04:59.855Z,990.20
2024-03-12T12:06:00.830Z,990.22
2024-03-12T12:07:00.781Z,990.27
2024-03-12T12:07:59.805Z,990.27
2024-03-12T12:09:01.094Z,990.28
2024-03-12T12:09:59.796Z,990.23
2024-03-12T12:10:59.841Z,990.28
2024-03-12T12:11:59.788Z,990.25
2024-03-12T12:12:59.781Z,990.24
2024-03-12T12:14:01.490Z,990.28
2024-03-12T12:14:59.722Z,990.32
2024-03-12T12:15:59.719Z,990.29
2024-03-12T12:17:00.332Z,990.30
2024-03-12T12:17:59.701Z,990.31
2024-03-12T12:18:59.726Z,990.32
2024-03-12T12:19:59.639Z,990.30
2024-03-12T12:20:59.648Z,990.36
2024-03-12T12:22:00.358Z,990.31
2024-03-12T12:23:00.052Z,990.34
2024-03-12T12:24:00.479Z,990.35
2024-03-12T12:24:59.633Z,990.33
2024-03-12T12:25:59.615Z,990.31
2024-03-12T12:26:59.597Z,990.26
2024-03-12T12:27:59.550Z,990.29
2024-03-12T12:28:59.549Z,990.30